createdAt,value
2017-12-02T00:01:36.031Z,1.60
2017-12-02T00:04:03.128Z,1.60
2017-12-02T00:06:29.813Z,1.30
2017-12-02T00:08:55.722Z,1.30
2017-12-02T00:11:21.668Z,1.20
2017-12-02T00:13:47.713Z,1.20
2017-12-02T00:16:13.621Z,1.10
2017-12-02T00:18:39.535Z,1.10
2017-12-02T00:21:05.459Z,1.10
2017-12-02T00:23:31.381Z,1.10
2017-12-02T00:25:57.310Z,1.10
2017-12-02T00:28:23.228Z,1.20
2017-12-02T00:30:49.195Z,1.40
2017-12-02T00:33:15.175Z,1.30
2017-12-02T00:35:41.085Z,1.30
2017-12-02T00:38:07.014Z,1.30
2017-12-02T00:40:32.958Z,1.30
2017-12-02T00:42:58.890Z,1.30
2017-12-02T00:45:24.849Z,1.30
2017-12-02T00:47:51.526Z,1.60
2017-12-02T00:50:17.443Z,1.50
2017-12-02T00:52:43.366Z,1.60
2017-12-02T00:55:09.260Z,1.60
2017-12-02T00:57:35.187Z,1.60
2017-12-02T01:00:01.191Z,1.70
2017-12-02T01:02:27.950Z,1.70
2017-12-02T01:04:53.897Z,1.70
2017-12-02T01:07:20.788Z,1.80
2017-12-02T01:09:46.730Z,1.70
2017-12-02T01:12:13.546Z,1.70
2017-12-02T01:14:40.609Z,1.70
2017-12-02T01:17:07.837Z,1.60
2017-12-02T01:19:34.745Z,1.70
2017-12-02T01:22:00.699Z,1.70
2017-12-02T01:24:27.198Z,1.70
2017-12-02T01:26:53.886Z,1.60
2017-12-02T01:29:20.828Z,1.70
2017-12-02T01:31:46.797Z,1.60
2017-12-02T01:34:12.745Z,1.60
2017-12-02T01:36:38.645Z,1.50
2017-12-02T01:39:04.551Z,1.50
2017-12-02T01:41:30.447Z,1.40
2017-12-02T01:43:56.371Z,1.40
2017-12-02T01:46:22.342Z,1.40
2017-12-02T01:48:48.255Z,1.30
2017-12-02T01:51:14.951Z,1.40
2017-12-02T01:53:40.874Z,1.30
2017-12-02T01:56:06.767Z,1.40
2017-12-02T01:58:32.694Z,1.40
2017-12-02T02:00:58.618Z,1.30
2017-12-02T02:03:24.579Z,1.40
2017-12-02T02:05:50.501Z,1.50
2017-12-02T02:08:17.162Z,1.40
2017-12-02T02:10:43.078Z,1.40
2017-12-02T02:13:08.995Z,1.40
2017-12-02T02:15:34.928Z,1.50
2017-12-02T02:18:00.905Z,1.50
2017-12-02T02:20:26.811Z,1.50
2017-12-02T02:22:52.814Z,1.50
2017-12-02T02:25:19.475Z,1.40
2017-12-02T02:27:45.397Z,1.40
2017-12-02T02:30:11.312Z,1.40
2017-12-02T02:32:37.233Z,1.40
2017-12-02T02:35:03.174Z,1.60
2017-12-02T02:37:29.308Z,1.40
2017-12-02T02:39:55.245Z,1.30
2017-12-02T02:42:21.175Z,1.40
2017-12-02T02:44:47.147Z,1.60
2017-12-02T02:47:13.141Z,1.60
2017-12-02T02:49:39.090Z,1.50
2017-12-02T02:52:05.012Z,1.50
2017-12-02T02:54:30.954Z,1.50
2017-12-02T02:56:56.934Z,1.50
2017-12-02T02:59:22.891Z,1.40
2017-12-02T03:01:48.883Z,1.30
2017-12-02T03:04:14.800Z,1.20
2017-12-02T03:06:40.735Z,1.20
2017-12-02T03:09:07.513Z,1.10
2017-12-02T03:11:34.149Z,1.10
2017-12-02T03:14:01.255Z,1.10
2017-12-02T03:16:28.098Z,1.00
2017-12-02T03:18:54.018Z,1.10
2017-12-02T03:21:19.943Z,1.00
2017-12-02T03:23:45.962Z,1.00
2017-12-02T03:26:11.879Z,1.00
2017-12-02T03:28:38.748Z,1.00
2017-12-02T03:31:05.427Z,1.00
2017-12-02T03:33:31.515Z,1.00
2017-12-02T03:35:58.172Z,1.00
2017-12-02T03:38:24.095Z,1.00
2017-12-02T03:40:50.053Z,1.10
2017-12-02T03:43:15.991Z,1.10
2017-12-02T03:45:42.115Z,1.10
2017-12-02T03:48:08.048Z,1.00
2017-12-02T03:50:33.985Z,1.10
2017-12-02T03:52:59.904Z,1.10
2017-12-02T03:55:26.162Z,1.10
2017-12-02T03:57:52.123Z,1.10
2017-12-02T04:00:18.918Z,1.20
2017-12-02T04:02:44.851Z,1.00
2017-12-02T04:05:10.761Z,1.00
2017-12-02T04:07:36.787Z,1.00
2017-12-02T04:10:02.710Z,1.00
2017-12-02T04:12:28.634Z,0.90
2017-12-02T04:14:54.590Z,0.80
2017-12-02T04:17:20.553Z,0.90
2017-12-02T04:19:46.473Z,0.90
2017-12-02T04:22:13.167Z,0.90
2017-12-02T04:24:39.144Z,0.80
2017-12-02T04:27:06.178Z,0.90
2017-12-02T04:29:32.109Z,0.90
2017-12-02T04:31:58.099Z,0.90
2017-12-02T04:34:24.787Z,0.80
2017-12-02T04:36:50.739Z,0.80
2017-12-02T04:39:16.708Z,0.90
2017-12-02T04:41:42.695Z,0.70
2017-12-02T04:44:08.784Z,0.70
2017-12-02T04:46:34.724Z,0.80
2017-12-02T04:49:00.645Z,0.90
2017-12-02T04:51:26.589Z,0.90
2017-12-02T04:53:52.520Z,0.90
2017-12-02T04:56:18.471Z,0.90
2017-12-02T04:58:44.380Z,1.10
2017-12-02T05:01:10.312Z,1.10
2017-12-02T05:03:36.282Z,1.20
2017-12-02T05:06:02.210Z,1.10
2017-12-02T05:08:28.098Z,1.20
2017-12-02T05:10:54.029Z,1.20
2017-12-02T05:13:20.023Z,1.20
2017-12-02T05:15:46.684Z,1.10
2017-12-02T05:18:12.578Z,1.10
2017-12-02T05:20:39.118Z,1.10
2017-12-02T05:23:05.826Z,1.10
2017-12-02T05:25:32.511Z,1.10
2017-12-02T05:27:58.496Z,1.10
2017-12-02T05:30:24.401Z,1.20
2017-12-02T05:32:51.066Z,1.00
2017-12-02T05:35:17.008Z,1.00
2017-12-02T05:37:42.915Z,1.00
2017-12-02T05:40:08.847Z,1.00
2017-12-02T05:42:34.775Z,0.90
2017-12-02T05:45:00.854Z,1.00
2017-12-02T05:47:26.769Z,1.00
2017-12-02T05:49:52.777Z,0.90
2017-12-02T05:52:19.453Z,0.90
2017-12-02T05:54:46.069Z,0.90
2017-12-02T05:57:12.163Z,0.80
2017-12-02T05:59:38.117Z,0.80
2017-12-02T06:02:04.020Z,0.80
2017-12-02T06:04:30.694Z,0.60
2017-12-02T06:06:56.647Z,0.50
2017-12-02T06:09:22.579Z,0.60
2017-12-02T06:11:48.497Z,0.50
2017-12-02T06:14:14.419Z,0.50
2017-12-02T06:16:40.343Z,0.60
2017-12-02T06:19:06.273Z,0.60
2017-12-02T06:21:32.186Z,0.70
2017-12-02T06:23:58.137Z,0.80
2017-12-02T06:26:24.059Z,0.70
2017-12-02T06:28:49.972Z,0.70
2017-12-02T06:31:15.901Z,0.70
2017-12-02T06:33:41.823Z,0.70
2017-12-02T06:36:07.775Z,0.60
2017-12-02T06:38:33.739Z,0.50
2017-12-02T06:40:59.702Z,0.20
2017-12-02T06:43:25.679Z,0.10
2017-12-02T06:45:51.617Z,-0.10
2017-12-02T06:48:18.469Z,-0.10
2017-12-02T06:50:45.302Z,-0.10
2017-12-02T06:53:11.946Z,0.00
2017-12-02T06:55:37.931Z,0.00
2017-12-02T06:58:04.058Z,0.20
2017-12-02T07:00:30.002Z,0.20
2017-12-02T07:02:55.935Z,0.10
2017-12-02T07:05:21.849Z,0.10
2017-12-02T07:07:47.795Z,0.30
2017-12-02T07:10:14.524Z,0.50
2017-12-02T07:12:40.434Z,0.40
2017-12-02T07:15:06.356Z,0.60
2017-12-02T07:17:32.292Z,0.50
2017-12-02T07:19:58.205Z,0.30
2017-12-02T07:22:24.146Z,0.10
2017-12-02T07:24:50.134Z,0.20
2017-12-02T07:27:16.082Z,0.30
2017-12-02T07:29:42.095Z,0.10
2017-12-02T07:32:08.946Z,-0.10
2017-12-02T07:34:35.917Z,0.10
2017-12-02T07:37:03.888Z,0.30
2017-12-02T07:39:30.995Z,0.40
2017-12-02T07:41:57.014Z,0.50
2017-12-02T07:44:23.048Z,0.50
2017-12-02T07:46:49.933Z,0.30
2017-12-02T07:49:18.504Z,0.20
2017-12-02T07:51:46.634Z,0.30
2017-12-02T07:54:16.431Z,0.40
2017-12-02T07:56:43.228Z,0.60
2017-12-02T07:59:09.171Z,0.50
2017-12-02T08:01:35.203Z,0.70
2017-12-02T08:04:02.057Z,0.70
2017-12-02T08:06:28.955Z,0.70
2017-12-02T08:08:55.541Z,0.70
2017-12-02T08:11:25.539Z,0.70
2017-12-02T08:13:54.409Z,0.70
2017-12-02T08:16:21.741Z,0.70
2017-12-02T08:18:47.716Z,0.60
2017-12-02T08:21:16.332Z,0.40
2017-12-02T08:23:42.624Z,0.60
2017-12-02T08:26:08.533Z,0.60
2017-12-02T08:28:34.466Z,0.50
2017-12-02T08:31:01.969Z,0.40
2017-12-02T08:33:27.921Z,0.30
2017-12-02T08:35:53.856Z,0.40
2017-12-02T08:38:20.620Z,0.40
2017-12-02T08:40:46.539Z,0.30
2017-12-02T08:43:12.474Z,0.50
2017-12-02T08:45:39.156Z,0.60
2017-12-02T08:48:05.102Z,0.50
2017-12-02T08:50:38.050Z,0.70
2017-12-02T08:53:04.047Z,0.80
2017-12-02T08:55:30.109Z,0.80
2017-12-02T08:57:56.016Z,0.80
2017-12-02T09:00:21.923Z,1.10
2017-12-02T09:02:48.022Z,1.10
2017-12-02T09:05:15.496Z,1.20
2017-12-02T09:07:41.484Z,1.40
2017-12-02T09:10:08.394Z,1.40
2017-12-02T09:12:34.583Z,1.40
2017-12-02T09:15:02.418Z,1.50
2017-12-02T09:17:28.416Z,1.50
2017-12-02T09:19:54.489Z,1.40
2017-12-02T09:22:20.381Z,1.40
2017-12-02T09:24:46.386Z,1.50
2017-12-02T09:27:14.440Z,1.50
2017-12-02T09:29:40.541Z,1.50
2017-12-02T09:32:06.560Z,1.40
2017-12-02T09:34:32.497Z,1.50
2017-12-02T09:36:59.980Z,1.20
2017-12-02T09:39:25.940Z,1.00
2017-12-02T09:41:52.009Z,0.80
2017-12-02T09:44:18.392Z,0.70
2017-12-02T09:46:44.363Z,0.70
2017-12-02T09:49:10.318Z,0.70
2017-12-02T09:51:36.993Z,1.00
2017-12-02T09:54:03.662Z,1.20
2017-12-02T09:56:29.565Z,1.10
2017-12-02T09:58:55.519Z,1.30
2017-12-02T10:01:21.513Z,1.30
2017-12-02T10:03:47.431Z,1.40
2017-12-02T10:06:13.359Z,1.40
2017-12-02T10:08:40.096Z,1.50
2017-12-02T10:11:06.190Z,1.40
2017-12-02T10:13:32.476Z,1.30
2017-12-02T10:15:59.913Z,1.50
2017-12-02T10:18:25.983Z,1.40
2017-12-02T10:20:51.929Z,1.50
2017-12-02T10:23:17.903Z,1.50
2017-12-02T10:25:43.903Z,1.30
2017-12-02T10:28:10.748Z,1.30
2017-12-02T10:30:36.711Z,1.40
2017-12-02T10:33:02.707Z,1.30
2017-12-02T10:35:28.683Z,1.30
2017-12-02T10:37:54.613Z,1.30
2017-12-02T10:40:20.516Z,1.20
2017-12-02T10:42:46.495Z,1.20
2017-12-02T10:45:12.548Z,1.30
2017-12-02T10:47:38.511Z,1.40
2017-12-02T10:50:05.455Z,1.40
2017-12-02T10:52:31.428Z,1.40
2017-12-02T10:54:57.453Z,1.40
2017-12-02T10:57:23.395Z,1.40
2017-12-02T10:59:49.304Z,1.10
2017-12-02T11:02:15.211Z,0.90
2017-12-02T11:04:41.160Z,1.00
2017-12-02T11:07:07.073Z,1.20
2017-12-02T11:09:32.971Z,1.40
2017-12-02T11:11:58.996Z,1.40
2017-12-02T11:14:24.965Z,1.40
2017-12-02T11:16:50.893Z,1.40
2017-12-02T11:19:17.545Z,1.30
2017-12-02T11:21:43.510Z,1.10
2017-12-02T11:24:10.278Z,1.00
2017-12-02T11:26:36.255Z,0.90
2017-12-02T11:29:02.342Z,1.10
2017-12-02T11:31:28.250Z,1.10
2017-12-02T11:33:54.238Z,1.40
2017-12-02T11:36:20.903Z,1.30
2017-12-02T11:38:46.842Z,1.30
2017-12-02T11:41:13.488Z,1.20
2017-12-02T11:43:39.491Z,1.20
2017-12-02T11:46:05.388Z,1.00
2017-12-02T11:48:32.059Z,0.70
2017-12-02T11:50:58.068Z,0.70
2017-12-02T11:53:25.033Z,1.00
2017-12-02T11:55:51.712Z,1.40
2017-12-02T11:58:17.639Z,1.30
2017-12-02T12:00:44.056Z,1.40
2017-12-02T12:03:10.097Z,1.50
2017-12-02T12:05:36.125Z,1.50
2017-12-02T12:08:02.052Z,1.50
2017-12-02T12:10:28.033Z,1.40
2017-12-02T12:12:54.055Z,1.40
2017-12-02T12:15:19.983Z,1.40
2017-12-02T12:17:45.903Z,1.30
2017-12-02T12:20:12.896Z,1.20
2017-12-02T12:22:39.560Z,1.20
2017-12-02T12:25:05.687Z,1.10
2017-12-02T12:27:31.604Z,1.30
2017-12-02T12:29:58.328Z,1.60
2017-12-02T12:32:24.334Z,1.60
2017-12-02T12:34:50.335Z,1.70
2017-12-02T12:37:17.277Z,1.40
2017-12-02T12:39:43.351Z,1.50
2017-12-02T12:42:09.247Z,1.60
2017-12-02T12:44:35.167Z,1.40
2017-12-02T12:47:01.130Z,1.20
2017-12-02T12:49:27.007Z,1.30
2017-12-02T12:51:52.998Z,1.50
2017-12-02T12:54:18.967Z,1.60
2017-12-02T12:56:44.896Z,1.50
2017-12-02T12:59:11.593Z,1.90
2017-12-02T13:01:37.542Z,1.80
2017-12-02T13:04:03.456Z,2.00
2017-12-02T13:06:29.377Z,2.00
2017-12-02T13:08:55.287Z,1.80
2017-12-02T13:11:21.267Z,1.70
2017-12-02T13:13:47.219Z,1.80
2017-12-02T13:16:13.218Z,2.00
2017-12-02T13:18:39.134Z,2.10
2017-12-02T13:21:05.068Z,2.30
2017-12-02T13:23:30.987Z,2.40
2017-12-02T13:25:56.974Z,2.50
2017-12-02T13:28:23.730Z,2.50
2017-12-02T13:30:49.702Z,2.70
2017-12-02T13:33:15.679Z,2.70
2017-12-02T13:35:41.600Z,2.80
2017-12-02T13:38:07.508Z,3.00
2017-12-02T13:40:33.517Z,3.30
2017-12-02T13:43:00.431Z,3.50
2017-12-02T13:45:26.462Z,3.40
2017-12-02T13:47:52.451Z,3.60
2017-12-02T13:50:18.396Z,3.60
2017-12-02T13:52:44.332Z,3.70
2017-12-02T13:55:10.262Z,3.70
2017-12-02T13:57:36.316Z,3.80
2017-12-02T14:00:02.489Z,3.80
2017-12-02T14:02:28.441Z,3.60
2017-12-02T14:04:55.354Z,3.70
2017-12-02T14:07:21.270Z,3.60
2017-12-02T14:09:48.210Z,3.70
2017-12-02T14:12:14.391Z,3.70
2017-12-02T14:14:40.427Z,4.00
2017-12-02T14:17:06.795Z,4.00
2017-12-02T14:19:33.391Z,4.10
2017-12-02T14:22:01.981Z,4.20
2017-12-02T14:24:27.900Z,4.10
2017-12-02T14:26:53.806Z,4.20
2017-12-02T14:29:19.743Z,4.20
2017-12-02T14:31:45.695Z,4.20
2017-12-02T14:34:11.736Z,4.20
2017-12-02T14:36:38.296Z,4.00
2017-12-02T14:39:05.009Z,3.70
2017-12-02T14:41:30.956Z,3.70
2017-12-02T14:43:56.916Z,3.70
2017-12-02T14:46:22.844Z,3.60
2017-12-02T14:48:48.860Z,3.50
2017-12-02T14:51:16.538Z,3.40
2017-12-02T14:53:43.194Z,3.30
2017-12-02T14:56:10.751Z,3.10
2017-12-02T14:58:36.737Z,3.10
2017-12-02T15:01:02.783Z,3.20
2017-12-02T15:03:28.807Z,3.00
2017-12-02T15:05:59.705Z,2.90
2017-12-02T15:08:25.631Z,2.90
2017-12-02T15:10:52.578Z,2.80
2017-12-02T15:13:18.551Z,2.80
2017-12-02T15:15:45.125Z,2.70
2017-12-02T15:18:11.076Z,2.70
2017-12-02T15:20:37.693Z,2.50
2017-12-02T15:23:04.618Z,2.40
2017-12-02T15:25:30.584Z,2.30
2017-12-02T15:27:56.721Z,2.30
2017-12-02T15:30:22.664Z,2.30
2017-12-02T15:32:51.475Z,2.20
2017-12-02T15:35:18.079Z,2.20
2017-12-02T15:37:44.910Z,2.20
2017-12-02T15:40:11.649Z,2.20
2017-12-02T15:42:38.920Z,2.20
2017-12-02T15:45:05.175Z,2.10
2017-12-02T15:47:31.151Z,2.10
2017-12-02T15:49:57.456Z,2.10
2017-12-02T15:52:24.202Z,2.10
2017-12-02T15:54:51.248Z,2.00
2017-12-02T15:57:17.791Z,1.90
2017-12-02T15:59:46.057Z,1.90
2017-12-02T16:02:13.004Z,1.90
2017-12-02T16:04:39.007Z,1.80
2017-12-02T16:07:06.150Z,1.80
2017-12-02T16:09:36.755Z,1.80
2017-12-02T16:12:02.739Z,1.80
2017-12-02T16:14:28.768Z,1.80
2017-12-02T16:16:55.708Z,1.90
2017-12-02T16:19:22.465Z,1.80
2017-12-02T16:21:48.431Z,1.80
2017-12-02T16:24:14.382Z,1.80
2017-12-02T16:26:40.344Z,1.80
2017-12-02T16:29:07.048Z,1.80
2017-12-02T16:31:32.981Z,1.70
2017-12-02T16:33:59.240Z,1.60
2017-12-02T16:36:25.178Z,1.50
2017-12-02T16:38:51.948Z,1.50
2017-12-02T16:41:17.967Z,1.30
2017-12-02T16:43:44.814Z,1.40
2017-12-02T16:46:11.551Z,1.30
2017-12-02T16:48:37.479Z,1.30
2017-12-02T16:51:09.099Z,1.30
2017-12-02T16:53:35.044Z,1.30
2017-12-02T16:56:00.981Z,1.20
2017-12-02T16:58:27.024Z,1.20
2017-12-02T17:00:54.492Z,1.30
2017-12-02T17:03:20.582Z,1.10
2017-12-02T17:05:47.551Z,1.30
2017-12-02T17:08:13.723Z,1.20
2017-12-02T17:10:40.439Z,1.10
2017-12-02T17:13:07.027Z,1.10
2017-12-02T17:15:33.140Z,1.10
2017-12-02T17:17:59.191Z,1.10
2017-12-02T17:20:26.209Z,1.10
2017-12-02T17:22:54.048Z,1.00
2017-12-02T17:25:20.004Z,1.10
2017-12-02T17:27:45.994Z,1.10
2017-12-02T17:30:11.899Z,1.10
2017-12-02T17:32:37.891Z,1.10
2017-12-02T17:35:04.610Z,1.00
2017-12-02T17:37:30.567Z,1.00
2017-12-02T17:39:56.521Z,1.00
2017-12-02T17:42:22.466Z,1.10
2017-12-02T17:44:48.357Z,1.10
2017-12-02T17:47:14.308Z,1.10
2017-12-02T17:49:41.025Z,1.00
2017-12-02T17:52:07.015Z,1.00
2017-12-02T17:54:32.952Z,1.00
2017-12-02T17:56:59.677Z,1.10
2017-12-02T17:59:25.603Z,1.00
2017-12-02T18:01:51.527Z,1.00
2017-12-02T18:04:17.575Z,1.10
2017-12-02T18:06:44.033Z,1.20
2017-12-02T18:09:10.131Z,1.30
2017-12-02T18:11:37.150Z,1.30
2017-12-02T18:14:04.051Z,1.20
2017-12-02T18:16:30.371Z,1.20
2017-12-02T18:18:56.341Z,1.20
2017-12-02T18:21:22.303Z,1.30
2017-12-02T18:23:49.627Z,1.20
2017-12-02T18:26:15.622Z,1.20
2017-12-02T18:28:41.578Z,1.20
2017-12-02T18:31:07.528Z,1.20
2017-12-02T18:33:33.502Z,1.30
2017-12-02T18:36:00.231Z,1.30
2017-12-02T18:38:26.174Z,1.20
2017-12-02T18:40:53.079Z,1.20
2017-12-02T18:43:19.069Z,1.30
2017-12-02T18:45:45.970Z,1.30
2017-12-02T18:48:11.899Z,1.30
2017-12-02T18:50:37.852Z,1.40
2017-12-02T18:53:03.852Z,1.40
2017-12-02T18:55:30.135Z,1.50
2017-12-02T18:57:56.846Z,1.50
2017-12-02T19:00:22.826Z,1.40
2017-12-02T19:02:49.054Z,1.50
2017-12-02T19:05:16.740Z,1.50
2017-12-02T19:07:43.721Z,1.50
2017-12-02T19:10:10.472Z,1.50
2017-12-02T19:12:36.415Z,1.40
2017-12-02T19:15:02.411Z,1.40
2017-12-02T19:17:28.355Z,1.40
2017-12-02T19:19:54.314Z,1.40
2017-12-02T19:22:22.768Z,1.40
2017-12-02T19:24:49.770Z,1.40
2017-12-02T19:27:17.250Z,1.30
2017-12-02T19:29:43.295Z,1.30
2017-12-02T19:32:10.274Z,1.30
2017-12-02T19:34:38.639Z,1.30
2017-12-02T19:37:04.646Z,1.30
2017-12-02T19:39:30.580Z,1.30
2017-12-02T19:41:57.996Z,1.40
2017-12-02T19:44:23.994Z,1.30
2017-12-02T19:46:50.868Z,1.30
2017-12-02T19:49:17.010Z,1.40
2017-12-02T19:51:44.509Z,1.50
2017-12-02T19:54:12.218Z,1.40
2017-12-02T19:56:39.830Z,1.40
2017-12-02T19:59:08.679Z,1.30
2017-12-02T20:01:34.625Z,1.30
2017-12-02T20:04:01.577Z,1.30
2017-12-02T20:06:27.660Z,1.20
2017-12-02T20:08:55.472Z,1.20
2017-12-02T20:11:22.063Z,1.10
2017-12-02T20:13:48.083Z,1.10
2017-12-02T20:16:14.074Z,1.20
2017-12-02T20:18:40.826Z,1.00
2017-12-02T20:21:06.973Z,1.10
2017-12-02T20:23:34.258Z,1.00
2017-12-02T20:26:00.203Z,1.00
2017-12-02T20:28:27.033Z,1.10
2017-12-02T20:30:53.010Z,1.10
2017-12-02T20:33:19.035Z,1.10
2017-12-02T20:35:45.044Z,1.20
2017-12-02T20:38:11.555Z,1.20
2017-12-02T20:40:37.579Z,1.20
2017-12-02T20:43:04.043Z,1.20
2017-12-02T20:45:29.976Z,1.20
2017-12-02T20:47:55.912Z,1.20
2017-12-02T20:50:22.653Z,1.20
2017-12-02T20:52:48.582Z,1.20
2017-12-02T20:55:15.007Z,1.30
2017-12-02T20:57:40.956Z,1.30
2017-12-02T21:00:06.951Z,1.30
2017-12-02T21:02:33.524Z,1.30
2017-12-02T21:04:59.801Z,1.40
2017-12-02T21:07:25.816Z,1.40
2017-12-02T21:09:51.903Z,1.40
2017-12-02T21:12:17.833Z,1.50
2017-12-02T21:14:43.776Z,1.60
2017-12-02T21:17:09.771Z,1.80
2017-12-02T21:19:35.970Z,1.80
2017-12-02T21:22:01.928Z,1.70
2017-12-02T21:24:28.156Z,2.00
2017-12-02T21:26:54.730Z,2.20
2017-12-02T21:29:20.768Z,2.40
2017-12-02T21:31:46.738Z,2.20
2017-12-02T21:34:12.737Z,2.10
2017-12-02T21:36:38.781Z,2.00
2017-12-02T21:39:04.717Z,1.70
2017-12-02T21:41:30.727Z,1.50
2017-12-02T21:43:56.676Z,1.40
2017-12-02T21:46:22.630Z,1.40
2017-12-02T21:48:49.404Z,1.40
2017-12-02T21:51:15.349Z,1.40
2017-12-02T21:53:41.294Z,1.30
2017-12-02T21:56:08.287Z,1.20
2017-12-02T21:58:34.314Z,1.20
2017-12-02T22:01:00.803Z,1.20
2017-12-02T22:03:26.766Z,1.20
2017-12-02T22:05:52.698Z,1.20
2017-12-02T22:08:19.366Z,1.20
2017-12-02T22:10:45.275Z,1.20
2017-12-02T22:13:12.063Z,1.20
2017-12-02T22:15:38.773Z,1.20
2017-12-02T22:18:05.381Z,1.20
2017-12-02T22:20:31.523Z,1.30
2017-12-02T22:22:57.432Z,1.30
2017-12-02T22:25:24.306Z,1.30
2017-12-02T22:27:50.266Z,1.30
2017-12-02T22:30:17.238Z,1.30
2017-12-02T22:32:43.947Z,1.40
2017-12-02T22:35:11.640Z,1.40
2017-12-02T22:37:37.592Z,1.30
2017-12-02T22:40:03.578Z,1.40
2017-12-02T22:42:30.396Z,1.40
2017-12-02T22:44:56.810Z,1.50
2017-12-02T22:47:22.771Z,1.50
2017-12-02T22:49:48.689Z,1.50
2017-12-02T22:52:14.822Z,1.50
2017-12-02T22:54:41.307Z,1.50
2017-12-02T22:57:07.287Z,1.40
2017-12-02T22:59:33.286Z,1.40
2017-12-02T23:02:00.825Z,1.40
2017-12-02T23:04:26.800Z,1.40
2017-12-02T23:06:52.762Z,1.40
2017-12-02T23:09:19.460Z,1.40
2017-12-02T23:11:46.895Z,1.40
2017-12-02T23:14:13.623Z,1.40
2017-12-02T23:16:39.591Z,1.30
2017-12-02T23:19:05.626Z,1.40
2017-12-02T23:21:31.579Z,1.40
2017-12-02T23:23:58.692Z,1.40
2017-12-02T23:26:24.610Z,1.30
2017-12-02T23:28:51.524Z,1.30
2017-12-02T23:31:18.263Z,1.30
2017-12-02T23:33:44.898Z,1.20
2017-12-02T23:36:10.858Z,1.30
2017-12-02T23:38:36.790Z,1.20
2017-12-02T23:41:02.866Z,1.20
2017-12-02T23:43:28.794Z,1.10
2017-12-02T23:45:55.534Z,1.10
2017-12-02T23:48:21.510Z,1.10
2017-12-02T23:50:47.487Z,1.10
2017-12-02T23:53:13.416Z,1.10
2017-12-02T23:55:39.343Z,1.00
2017-12-02T23:58:05.319Z,1.10
